Time;durP1;ratioP1;P1;durP2;ratioP2;P2;SDS_P1;SDS_P2;PMS_P1;PMS_P2;Temp;Humidity;BMP_temperature;BMP_pressure;BME280_temperature;BME280_humidity;BME280_pressure;Samples;Min_cycle;Max_cycle;Signal;HPM_P1;HPM_P2
2022/12/08 00:01:24;;;;;;;19.47;11.80;;;5.00;99.90;;;;;;5015089;28;20464;-82
2022/12/08 00:03:51;;;;;;;16.80;11.07;;;5.00;99.90;;;;;;5006927;28;20539;-82
2022/12/08 00:09:23;;;;;;;19.03;12.53;;;5.10;99.90;;;;;;5004998;28;20446;-84
2022/12/08 00:11:58;;;;;;;18.83;12.77;;;5.20;99.90;;;;;;5005413;28;20484;-82
2022/12/08 00:14:28;;;;;;;19.53;12.80;;;5.20;99.90;;;;;;5005900;28;20516;-82
2022/12/08 00:16:55;;;;;;;16.20;12.30;;;5.10;99.90;;;;;;5004594;28;20566;-82
2022/12/08 00:19:23;;;;;;;16.10;12.80;;;5.00;99.90;;;;;;5005246;28;20582;-83
2022/12/08 00:21:50;;;;;;;18.67;12.97;;;5.00;99.90;;;;;;5003725;28;20543;-82
2022/12/08 00:24:18;;;;;;;16.97;13.27;;;5.00;99.90;;;;;;5004372;28;20454;-83
2022/12/08 00:26:45;;;;;;;20.53;14.30;;;5.00;99.90;;;;;;5010166;28;20538;-82
2022/12/08 00:29:12;;;;;;;19.50;12.93;;;5.10;99.90;;;;;;5016665;28;20457;-82
2022/12/08 00:31:40;;;;;;;16.10;13.50;;;5.10;99.90;;;;;;5041515;28;20461;-81
2022/12/08 00:34:07;;;;;;;17.30;13.50;;;5.20;99.90;;;;;;5022837;28;20550;-83
2022/12/08 00:36:34;;;;;;;17.80;13.47;;;5.20;99.90;;;;;;5003112;28;20942;-82
2022/12/08 00:39:01;;;;;;;18.80;13.97;;;5.10;99.90;;;;;;5003660;28;20490;-83
2022/12/08 00:44:14;;;;;;;20.07;15.20;;;5.10;99.90;;;;;;5007685;28;20452;-83
2022/12/08 00:46:42;;;;;;;19.07;15.40;;;5.10;99.90;;;;;;5003486;28;20582;-82
2022/12/08 00:49:09;;;;;;;22.57;15.93;;;5.10;99.90;;;;;;5001749;28;21019;-82
2022/12/08 00:51:36;;;;;;;17.77;14.93;;;5.20;99.90;;;;;;5001808;28;20538;-83
2022/12/08 00:54:03;;;;;;;20.70;15.40;;;5.20;99.90;;;;;;5002959;28;20493;-82
2022/12/08 00:56:30;;;;;;;19.57;15.87;;;5.20;99.90;;;;;;5002496;28;20485;-82
2022/12/08 00:58:57;;;;;;;20.97;14.80;;;5.20;99.90;;;;;;5001165;28;20493;-82
2022/12/08 01:01:24;;;;;;;22.40;16.70;;;5.20;99.90;;;;;;4997953;28;20460;-82
2022/12/08 01:03:52;;;;;;;22.03;13.93;;;5.20;99.90;;;;;;4998239;28;20861;-82
2022/12/08 01:06:19;;;;;;;20.23;14.73;;;5.30;99.90;;;;;;4998402;28;20478;-83
2022/12/08 01:08:46;;;;;;;21.10;15.00;;;5.10;99.90;;;;;;4997623;28;21072;-82
2022/12/08 01:11:16;;;;;;;21.03;15.90;;;5.10;99.90;;;;;;4997695;28;20457;-83
2022/12/08 01:13:43;;;;;;;22.87;14.57;;;5.20;99.90;;;;;;4998093;28;20959;-82
2022/12/08 01:16:10;;;;;;;19.90;15.07;;;5.20;99.90;;;;;;4997668;28;20474;-82
2022/12/08 01:18:37;;;;;;;19.83;15.00;;;5.10;99.90;;;;;;4997629;28;20493;-83
2022/12/08 01:21:07;;;;;;;18.97;14.73;;;5.10;99.90;;;;;;4999444;28;20809;-83
2022/12/08 01:23:34;;;;;;;19.90;14.20;;;5.00;99.90;;;;;;4998571;28;20461;-82
2022/12/08 01:26:02;;;;;;;18.03;13.10;;;4.90;99.90;;;;;;4998419;28;20535;-82
2022/12/08 01:28:29;;;;;;;25.40;15.17;;;4.90;99.90;;;;;;4998106;28;20448;-82
2022/12/08 01:30:56;;;;;;;20.60;13.50;;;4.80;99.90;;;;;;4998013;28;20456;-83
2022/12/08 01:33:24;;;;;;;18.87;14.57;;;4.70;99.90;;;;;;4997120;28;20450;-84
2022/12/08 01:35:51;;;;;;;22.40;15.07;;;4.60;99.90;;;;;;4997739;28;20473;-83
2022/12/08 01:38:19;;;;;;;19.93;15.50;;;4.60;99.90;;;;;;4996818;28;20501;-83
2022/12/08 01:40:46;;;;;;;17.17;15.13;;;4.60;99.90;;;;;;4997333;28;20450;-82
2022/12/08 01:43:15;;;;;;;21.83;17.17;;;4.50;99.90;;;;;;4996896;28;20983;-82
2022/12/08 01:45:42;;;;;;;19.00;13.70;;;4.50;99.90;;;;;;4995742;28;20513;-82
2022/12/08 01:48:16;;;;;;;19.90;13.70;;;4.50;99.90;;;;;;4993180;28;20465;-83
2022/12/08 01:50:43;;;;;;;16.97;13.70;;;4.60;99.90;;;;;;4996710;28;20452;-83
2022/12/08 01:53:14;;;;;;;22.27;15.00;;;4.60;99.90;;;;;;4989845;28;20455;-83
2022/12/08 01:55:46;;;;;;;20.70;13.80;;;4.70;99.90;;;;;;4996151;28;20488;-82
2022/12/08 01:58:18;;;;;;;20.20;15.60;;;4.80;99.90;;;;;;4995974;28;20466;-83
2022/12/08 02:00:45;;;;;;;18.73;15.40;;;4.70;99.90;;;;;;4996675;28;20464;-82
2022/12/08 02:03:17;;;;;;;28.60;17.20;;;4.80;99.90;;;;;;4995876;28;20458;-83
2022/12/08 02:05:44;;;;;;;17.70;14.40;;;4.80;99.90;;;;;;4996407;28;20596;-82
2022/12/08 02:08:13;;;;;;;21.57;15.40;;;4.80;99.90;;;;;;4995899;28;20557;-82
2022/12/08 02:10:43;;;;;;;24.13;16.57;;;4.90;99.90;;;;;;4996274;28;20954;-82
2022/12/08 02:13:13;;;;;;;22.67;16.20;;;4.90;99.90;;;;;;4995888;28;20480;-81
2022/12/08 02:15:48;;;;;;;21.70;15.27;;;5.00;99.90;;;;;;4995986;28;20472;-82
2022/12/08 02:18:29;;;;;;;30.03;16.63;;;5.00;99.90;;;;;;4994871;28;20473;-82
2022/12/08 02:21:02;;;;;;;22.80;16.63;;;5.00;99.90;;;;;;4995607;28;20421;-82
2022/12/08 02:23:38;;;;;;;22.73;17.90;;;5.00;99.90;;;;;;4995937;28;20476;-83
2022/12/08 02:26:42;;;;;;;24.50;19.13;;;4.90;99.90;;;;;;4995744;28;20504;-82
2022/12/08 02:29:36;;;;;;;25.07;18.00;;;5.00;99.90;;;;;;4995178;28;20459;-83
2022/12/08 02:35:30;;;;;;;31.27;19.20;;;4.90;99.90;;;;;;4995752;28;20405;-81
2022/12/08 02:38:05;;;;;;;27.30;17.77;;;4.90;99.90;;;;;;4995376;28;20455;-81
2022/12/08 02:40:39;;;;;;;27.17;17.90;;;4.90;99.90;;;;;;4984791;28;21002;-81
2022/12/08 02:43:12;;;;;;;28.87;18.70;;;4.90;99.90;;;;;;4995755;28;20927;-82
2022/12/08 02:45:43;;;;;;;28.17;19.57;;;5.00;99.90;;;;;;4995442;28;21029;-82
2022/12/08 02:48:10;;;;;;;22.80;17.30;;;5.00;99.90;;;;;;4994930;28;20831;-82
2022/12/08 02:50:39;;;;;;;29.83;19.20;;;5.00;99.90;;;;;;4995930;28;20489;-82
2022/12/08 02:53:05;;;;;;;25.40;18.40;;;4.90;99.90;;;;;;4995154;28;20501;-82
2022/12/08 02:55:43;;;;;;;23.90;17.60;;;5.00;99.90;;;;;;4995169;28;20489;-82
2022/12/08 02:58:34;;;;;;;26.20;17.67;;;5.00;99.90;;;;;;4995184;28;20460;-82
2022/12/08 03:01:15;;;;;;;28.73;18.07;;;5.10;99.90;;;;;;4995066;28;20454;-81
2022/12/08 03:03:49;;;;;;;28.40;20.50;;;5.10;99.90;;;;;;4995348;28;20531;-81
2022/12/08 03:06:28;;;;;;;25.23;18.27;;;5.10;99.90;;;;;;4995360;28;20486;-82
2022/12/08 03:08:58;;;;;;;24.07;18.20;;;5.10;99.90;;;;;;4995024;28;20452;-82
2022/12/08 03:11:30;;;;;;;28.20;18.10;;;5.10;99.90;;;;;;4994717;28;20459;-82
2022/12/08 03:14:01;;;;;;;29.03;19.97;;;5.10;99.90;;;;;;4995270;28;20464;-83
2022/12/08 03:16:29;;;;;;;31.57;19.70;;;5.20;99.90;;;;;;4994872;28;20473;-82
2022/12/08 03:19:01;;;;;;;28.40;19.50;;;5.20;99.90;;;;;;4994803;28;20493;-83
2022/12/08 03:21:31;;;;;;;32.57;21.20;;;5.20;99.90;;;;;;4995165;28;20459;-82
2022/12/08 03:23:59;;;;;;;30.30;21.33;;;5.10;99.90;;;;;;4994518;28;20831;-82
2022/12/08 03:26:31;;;;;;;29.77;20.50;;;5.00;99.90;;;;;;4994311;28;20472;-81
2022/12/08 03:28:59;;;;;;;33.77;20.33;;;5.10;99.90;;;;;;4994435;28;20449;-82
2022/12/08 03:31:31;;;;;;;31.87;20.40;;;5.10;99.90;;;;;;4994828;28;20501;-82
2022/12/08 03:33:59;;;;;;;31.57;20.50;;;5.00;99.90;;;;;;4994770;28;21014;-82
2022/12/08 03:36:27;;;;;;;29.90;20.93;;;5.10;99.90;;;;;;4995150;28;20471;-82
2022/12/08 03:38:55;;;;;;;27.70;19.50;;;5.10;99.90;;;;;;4994125;28;20455;-82
2022/12/08 03:41:22;;;;;;;35.33;22.60;;;5.20;99.90;;;;;;4994841;28;20465;-81
2022/12/08 03:43:51;;;;;;;34.23;21.60;;;5.20;99.90;;;;;;4995037;28;20456;-83
2022/12/08 03:46:19;;;;;;;35.33;21.23;;;5.20;99.90;;;;;;4994817;28;20487;-83
2022/12/08 03:48:46;;;;;;;33.77;20.70;;;5.10;99.90;;;;;;4994712;28;20456;-83
2022/12/08 03:51:14;;;;;;;28.60;20.67;;;5.20;99.90;;;;;;4994937;28;20991;-82
2022/12/08 03:53:41;;;;;;;29.40;18.80;;;5.20;99.90;;;;;;4995229;28;20467;-83
2022/12/08 03:56:16;;;;;;;32.43;20.70;;;5.30;99.90;;;;;;4994802;28;21011;-83
2022/12/08 03:58:43;;;;;;;32.73;20.77;;;5.20;99.90;;;;;;4975888;28;20458;-82
2022/12/08 04:01:10;;;;;;;27.87;19.43;;;5.20;99.90;;;;;;4975769;28;21030;-82
2022/12/08 04:03:37;;;;;;;25.80;18.17;;;5.20;99.90;;;;;;4994685;28;20519;-82
2022/12/08 04:06:04;;;;;;;31.90;17.40;;;5.20;99.90;;;;;;4995610;28;20836;-83
2022/12/08 04:08:31;;;;;;;33.70;20.30;;;5.20;99.90;;;;;;4995490;28;20459;-82
2022/12/08 04:10:58;;;;;;;33.17;21.13;;;5.10;99.90;;;;;;4995777;28;20455;-84
2022/12/08 04:13:26;;;;;;;29.57;18.73;;;5.00;99.90;;;;;;4996263;28;20455;-83
2022/12/08 04:15:53;;;;;;;31.63;19.60;;;5.00;99.90;;;;;;4996497;28;20475;-83
2022/12/08 04:18:19;;;;;;;28.97;20.63;;;4.90;99.90;;;;;;4996020;28;20451;-84
2022/12/08 04:20:46;;;;;;;30.47;20.27;;;5.00;99.90;;;;;;4995905;28;20572;-83
2022/12/08 04:23:13;;;;;;;29.40;17.90;;;4.90;99.90;;;;;;5015634;28;20465;-83
2022/12/08 04:25:40;;;;;;;24.43;17.93;;;4.90;99.90;;;;;;5014258;28;20499;-82
2022/12/08 04:28:07;;;;;;;25.77;19.40;;;4.90;99.90;;;;;;5011682;28;20503;-83
2022/12/08 04:30:35;;;;;;;27.63;18.47;;;4.90;99.90;;;;;;4994573;28;20460;-82
2022/12/08 04:33:02;;;;;;;33.87;19.30;;;4.80;99.90;;;;;;4995061;28;20452;-82
2022/12/08 04:35:29;;;;;;;22.50;15.70;;;4.90;99.90;;;;;;4995524;28;20455;-83
2022/12/08 04:37:56;;;;;;;32.00;16.87;;;4.90;99.90;;;;;;4998815;28;20458;-82
2022/12/08 04:40:23;;;;;;;31.63;18.50;;;4.90;99.90;;;;;;4998239;28;20493;-82
2022/12/08 04:42:50;;;;;;;32.67;18.37;;;4.90;99.90;;;;;;4998309;28;20463;-82
2022/12/08 04:45:17;;;;;;;25.57;17.07;;;4.90;99.90;;;;;;4997995;28;20455;-82
2022/12/08 04:47:46;;;;;;;28.60;18.73;;;4.90;99.90;;;;;;4998421;28;20512;-82
2022/12/08 04:50:13;;;;;;;26.90;16.50;;;4.90;99.90;;;;;;4997852;28;20472;-82
2022/12/08 04:52:40;;;;;;;28.53;19.10;;;4.90;99.90;;;;;;4997649;28;20467;-82
2022/12/08 04:55:07;;;;;;;23.13;16.10;;;4.80;99.90;;;;;;4997366;28;20454;-83
2022/12/08 04:57:34;;;;;;;24.90;16.70;;;4.80;99.90;;;;;;4997786;28;20473;-83
2022/12/08 05:00:01;;;;;;;25.33;16.20;;;4.80;99.90;;;;;;4992204;28;20496;-82
2022/12/08 05:02:28;;;;;;;28.50;17.07;;;4.70;99.90;;;;;;4996334;28;20839;-82
2022/12/08 05:04:56;;;;;;;26.20;17.30;;;4.70;99.90;;;;;;4997009;28;20449;-82
2022/12/08 05:07:23;;;;;;;27.63;16.23;;;4.70;99.90;;;;;;4997256;28;20478;-83
2022/12/08 05:09:49;;;;;;;23.80;16.30;;;4.60;99.90;;;;;;4997694;28;20457;-83
2022/12/08 05:12:16;;;;;;;24.70;15.63;;;4.70;99.90;;;;;;4996088;28;20478;-81
2022/12/08 05:14:43;;;;;;;21.43;14.90;;;4.70;99.90;;;;;;4997866;28;20453;-83
2022/12/08 05:17:10;;;;;;;21.80;14.80;;;4.70;99.90;;;;;;4994917;28;20864;-82
2022/12/08 05:19:37;;;;;;;27.23;17.00;;;4.80;99.90;;;;;;4997370;28;20504;-82
2022/12/08 05:22:05;;;;;;;23.33;16.20;;;4.70;99.90;;;;;;4997786;28;20458;-82
2022/12/08 05:24:31;;;;;;;29.60;18.27;;;4.70;99.90;;;;;;4995492;28;20455;-83
2022/12/08 05:26:58;;;;;;;28.50;18.80;;;4.60;99.90;;;;;;4996871;28;20472;-82
2022/12/08 05:29:25;;;;;;;27.27;17.07;;;4.60;99.90;;;;;;4999431;28;20459;-83
2022/12/08 05:31:52;;;;;;;26.50;17.10;;;4.60;99.90;;;;;;4997616;28;20457;-82
2022/12/08 05:34:19;;;;;;;19.30;14.90;;;4.60;99.90;;;;;;4997218;28;20465;-83
2022/12/08 05:36:45;;;;;;;23.37;16.20;;;4.70;99.90;;;;;;4997476;28;20485;-85
2022/12/08 05:39:14;;;;;;;27.00;17.13;;;4.70;99.90;;;;;;4997923;28;20452;-82
2022/12/08 05:41:41;;;;;;;27.53;16.20;;;4.70;99.90;;;;;;4998440;28;20442;-81
2022/12/08 05:44:08;;;;;;;22.60;15.80;;;4.70;99.90;;;;;;4997273;28;20727;-82
2022/12/08 05:46:35;;;;;;;21.80;14.50;;;4.70;99.90;;;;;;5020158;22;20538;-79
2022/12/08 05:49:03;;;;;;;24.93;15.77;;;4.70;99.90;;;;;;4997458;28;20452;-80
2022/12/08 05:51:30;;;;;;;24.20;15.53;;;4.70;99.90;;;;;;4995966;28;20443;-79
2022/12/08 05:53:58;;;;;;;20.50;15.47;;;4.70;99.90;;;;;;4995828;28;20459;-80
2022/12/08 05:56:28;;;;;;;22.87;15.30;;;4.70;99.90;;;;;;5007803;28;20576;-77
2022/12/08 05:58:54;;;;;;;21.00;15.80;;;4.60;99.90;;;;;;5012576;28;20959;-78
2022/12/08 06:01:23;;;;;;;26.30;16.23;;;4.70;99.90;;;;;;5003711;28;20496;-81
2022/12/08 06:03:50;;;;;;;24.63;14.17;;;4.70;99.90;;;;;;5017341;28;20928;-79
2022/12/08 06:06:17;;;;;;;20.30;14.60;;;4.80;99.90;;;;;;5026757;28;20475;-80
2022/12/08 06:08:44;;;;;;;21.93;14.77;;;4.80;99.90;;;;;;5018300;28;20541;-80
2022/12/08 06:11:18;;;;;;;19.80;14.20;;;4.80;99.90;;;;;;5018685;28;20830;-80
2022/12/08 06:13:46;;;;;;;18.57;13.23;;;4.80;99.90;;;;;;5017098;28;20456;-78
2022/12/08 06:16:13;;;;;;;19.83;14.20;;;4.80;99.90;;;;;;5017105;28;20474;-79
2022/12/08 06:18:40;;;;;;;26.30;15.07;;;4.80;99.90;;;;;;5017014;28;20900;-82
2022/12/08 06:21:08;;;;;;;19.30;13.97;;;4.70;99.90;;;;;;5018077;28;20873;-80
2022/12/08 06:23:36;;;;;;;21.67;14.60;;;4.70;99.90;;;;;;5017662;28;20457;-79
2022/12/08 06:26:03;;;;;;;25.40;15.03;;;4.70;99.90;;;;;;5017209;28;20491;-79
2022/12/08 06:28:30;;;;;;;23.47;13.17;;;4.70;99.90;;;;;;5016607;28;20545;-81
2022/12/08 06:30:59;;;;;;;20.10;13.20;;;4.70;99.90;;;;;;5016714;28;20444;-80
2022/12/08 06:33:26;;;;;;;22.23;14.77;;;4.70;99.90;;;;;;5016619;28;20452;-77
2022/12/08 06:35:53;;;;;;;16.27;10.73;;;4.60;99.90;;;;;;5016170;28;20466;-79
2022/12/08 06:38:20;;;;;;;21.67;14.93;;;4.60;99.90;;;;;;5016138;28;21025;-79
2022/12/08 06:40:53;;;;;;;23.87;14.27;;;4.60;99.90;;;;;;5015213;28;20495;-80
2022/12/08 06:43:20;;;;;;;20.80;13.70;;;4.70;99.90;;;;;;5014965;28;20451;-79
2022/12/08 06:45:47;;;;;;;18.10;12.10;;;4.60;99.90;;;;;;5014122;28;20967;-79
2022/12/08 06:48:15;;;;;;;19.97;12.60;;;4.60;99.90;;;;;;5014893;28;20552;-80
2022/12/08 06:50:42;;;;;;;15.50;10.73;;;4.60;99.90;;;;;;5015055;28;20458;-80
2022/12/08 06:53:11;;;;;;;15.87;9.93;;;4.60;99.90;;;;;;5014234;28;20463;-82
2022/12/08 06:55:42;;;;;;;16.87;11.40;;;4.60;99.90;;;;;;5014245;28;20457;-78
2022/12/08 06:58:09;;;;;;;17.23;11.57;;;4.60;99.90;;;;;;5012920;28;20471;-78
2022/12/08 07:00:35;;;;;;;16.10;10.60;;;4.70;99.90;;;;;;5013449;28;20488;-81
2022/12/08 07:03:02;;;;;;;16.97;11.03;;;4.70;99.90;;;;;;5014348;28;20459;-79
2022/12/08 07:05:30;;;;;;;17.53;11.00;;;4.80;99.90;;;;;;5014765;28;20541;-82
2022/12/08 07:07:57;;;;;;;17.50;11.10;;;4.70;99.90;;;;;;5015278;28;20558;-81
2022/12/08 07:10:24;;;;;;;20.63;13.33;;;4.70;99.90;;;;;;5015093;28;20544;-80
2022/12/08 07:12:51;;;;;;;17.47;12.07;;;4.60;99.90;;;;;;5016075;28;20538;-80
2022/12/08 07:15:18;;;;;;;19.80;13.50;;;4.60;99.90;;;;;;5015508;28;20968;-83
2022/12/08 07:17:45;;;;;;;21.23;14.30;;;4.60;99.90;;;;;;5014245;28;20564;-80
2022/12/08 07:20:12;;;;;;;23.90;13.23;;;4.60;99.90;;;;;;5015309;28;20490;-81
2022/12/08 07:22:40;;;;;;;17.70;12.70;;;4.50;99.90;;;;;;5014453;28;20549;-81
2022/12/08 07:25:08;;;;;;;20.23;14.07;;;4.50;99.90;;;;;;5017498;28;20450;-82
2022/12/08 07:27:35;;;;;;;21.63;14.23;;;4.40;99.90;;;;;;5017399;28;20469;-80
2022/12/08 07:30:01;;;;;;;22.10;13.00;;;4.50;99.90;;;;;;5016357;28;20462;-82
2022/12/08 07:32:28;;;;;;;17.20;11.53;;;4.50;99.90;;;;;;5016170;28;20456;-82
2022/12/08 07:34:55;;;;;;;18.87;11.87;;;4.60;99.90;;;;;;5016937;28;20462;-83
2022/12/08 07:37:22;;;;;;;21.37;11.00;;;4.60;99.90;;;;;;5016101;28;20906;-83
2022/12/08 07:39:50;;;;;;;18.30;11.00;;;4.60;99.90;;;;;;5016250;28;20456;-81
2022/12/08 07:42:17;;;;;;;19.50;12.07;;;4.60;99.90;;;;;;5016035;28;20536;-80
2022/12/08 07:44:43;;;;;;;18.40;11.60;;;4.60;99.90;;;;;;5015907;28;20462;-81
2022/12/08 07:47:10;;;;;;;20.00;12.87;;;4.70;99.90;;;;;;5014497;28;20565;-79
2022/12/08 07:49:37;;;;;;;18.13;11.70;;;4.70;99.90;;;;;;5014214;28;20453;-80
2022/12/08 07:52:04;;;;;;;20.83;13.13;;;4.60;99.90;;;;;;5014031;28;20450;-80
2022/12/08 07:54:30;;;;;;;17.50;12.00;;;4.60;99.90;;;;;;5004652;28;20451;-82
2022/12/08 07:56:59;;;;;;;14.70;10.70;;;4.60;99.90;;;;;;5002028;28;20505;-78
2022/12/08 07:59:25;;;;;;;16.03;10.47;;;4.60;99.90;;;;;;4998819;28;20820;-79
2022/12/08 08:01:52;;;;;;;20.30;13.30;;;4.70;99.90;;;;;;4993260;28;20489;-81
2022/12/08 08:04:19;;;;;;;17.37;11.97;;;4.70;99.90;;;;;;4995239;28;20442;-79
2022/12/08 08:06:46;;;;;;;18.37;12.90;;;4.70;99.90;;;;;;4999765;28;20578;-81
2022/12/08 08:09:13;;;;;;;24.63;13.60;;;4.70;99.90;;;;;;4993589;28;20985;-79
2022/12/08 08:11:39;;;;;;;17.07;10.30;;;4.70;99.90;;;;;;5000640;28;20538;-80
2022/12/08 08:14:09;;;;;;;17.00;11.33;;;4.60;99.90;;;;;;5001640;28;20459;-82
2022/12/08 08:16:35;;;;;;;18.73;11.30;;;4.70;99.90;;;;;;5001101;28;20467;-78
2022/12/08 08:19:02;;;;;;;16.93;11.10;;;4.70;99.90;;;;;;5001640;28;20864;-80
2022/12/08 08:21:29;;;;;;;18.40;11.87;;;4.70;99.90;;;;;;4998876;28;21097;-79
2022/12/08 08:23:56;;;;;;;15.93;11.60;;;4.70;99.90;;;;;;5000120;28;20530;-78
2022/12/08 08:26:23;;;;;;;19.10;11.43;;;4.70;99.90;;;;;;5000193;28;20494;-83
2022/12/08 08:28:49;;;;;;;18.30;12.40;;;4.60;99.90;;;;;;5006556;28;20453;-78
2022/12/08 08:31:18;;;;;;;16.20;11.90;;;4.50;99.90;;;;;;5017854;28;20454;-79
2022/12/08 08:33:47;;;;;;;14.67;9.80;;;4.60;99.90;;;;;;5018103;28;20537;-78
2022/12/08 08:36:14;;;;;;;12.47;7.97;;;4.50;99.90;;;;;;5018218;28;20930;-78
2022/12/08 08:38:42;;;;;;;13.60;9.40;;;4.40;99.90;;;;;;5016102;28;20449;-79
2022/12/08 08:41:10;;;;;;;12.90;10.03;;;4.40;99.90;;;;;;5000268;28;20584;-82
2022/12/08 08:43:37;;;;;;;13.17;8.97;;;4.50;99.90;;;;;;4999780;28;20462;-78
2022/12/08 08:46:05;;;;;;;13.23;9.13;;;4.50;99.90;;;;;;4996720;28;20492;-78
2022/12/08 08:48:33;;;;;;;14.20;9.23;;;4.50;99.90;;;;;;5002593;28;20518;-80
2022/12/08 08:51:07;;;;;;;15.17;9.57;;;4.40;99.90;;;;;;4997823;28;20447;-81
2022/12/08 08:53:34;;;;;;;12.23;8.37;;;4.50;99.90;;;;;;4998600;28;20451;-80
2022/12/08 08:56:03;;;;;;;12.00;8.27;;;4.50;99.90;;;;;;5009897;28;20528;-81
2022/12/08 08:58:30;;;;;;;13.67;9.17;;;4.40;99.90;;;;;;5003569;28;20483;-80
2022/12/08 09:00:57;;;;;;;12.80;8.67;;;4.50;99.90;;;;;;4998455;28;20538;-80
2022/12/08 09:03:24;;;;;;;12.53;9.37;;;4.40;99.90;;;;;;5000599;28;21203;-80
2022/12/08 09:05:52;;;;;;;16.63;9.43;;;4.40;99.90;;;;;;4999635;28;20493;-81
2022/12/08 09:08:19;;;;;;;12.07;9.23;;;4.50;99.90;;;;;;4996256;28;20456;-77
2022/12/08 09:10:46;;;;;;;13.70;9.67;;;4.50;99.90;;;;;;4991830;28;20458;-82
2022/12/08 09:13:12;;;;;;;16.50;10.30;;;4.50;99.90;;;;;;4995128;28;20457;-82
2022/12/08 09:15:39;;;;;;;15.40;10.77;;;4.50;99.90;;;;;;4992143;28;20447;-81
2022/12/08 09:18:06;;;;;;;15.70;10.90;;;4.50;99.90;;;;;;4997076;28;20555;-81
2022/12/08 09:20:34;;;;;;;14.57;11.40;;;4.50;99.90;;;;;;4996778;28;20470;-82
2022/12/08 09:23:02;;;;;;;17.60;11.57;;;4.50;99.90;;;;;;5001214;28;20489;-81
2022/12/08 09:25:29;;;;;;;15.13;11.10;;;4.50;99.90;;;;;;4997347;28;20973;-81
2022/12/08 09:27:56;;;;;;;18.33;10.03;;;4.50;99.90;;;;;;5002752;28;20478;-78
2022/12/08 09:30:23;;;;;;;11.63;9.47;;;4.50;99.90;;;;;;4993463;28;20458;-81
2022/12/08 09:32:49;;;;;;;14.27;9.80;;;4.50;99.90;;;;;;4996082;28;20478;-81
2022/12/08 09:35:16;;;;;;;10.17;8.27;;;4.50;99.90;;;;;;4990868;28;20957;-79
2022/12/08 09:37:43;;;;;;;10.97;8.67;;;4.50;99.90;;;;;;4999437;28;20474;-79
2022/12/08 09:40:17;;;;;;;14.20;8.60;;;4.50;99.90;;;;;;4996138;28;20541;-82
2022/12/08 09:42:52;;;;;;;12.27;8.67;;;4.50;99.90;;;;;;5005524;28;20608;-80
2022/12/08 09:45:20;;;;;;;12.07;8.63;;;4.50;99.90;;;;;;4994773;28;20556;-80
2022/12/08 09:48:00;;;;;;;13.00;9.50;;;4.50;99.90;;;;;;4997038;28;20486;-84
2022/12/08 09:50:34;;;;;;;11.30;9.47;;;4.50;99.90;;;;;;4992875;28;20499;-79
2022/12/08 09:53:04;;;;;;;14.53;9.30;;;4.50;99.90;;;;;;4995169;28;20582;-80
2022/12/08 09:55:40;;;;;;;14.93;10.87;;;4.50;99.90;;;;;;4995494;28;20436;-78
2022/12/08 09:58:17;;;;;;;14.70;10.00;;;4.50;99.90;;;;;;4996087;28;20707;-78
2022/12/08 10:00:44;;;;;;;15.93;10.47;;;4.40;99.90;;;;;;5000107;28;20450;-79
2022/12/08 10:03:12;;;;;;;15.20;11.27;;;4.50;99.90;;;;;;5003681;28;20814;-79
2022/12/08 10:05:46;;;;;;;17.97;11.40;;;4.50;99.90;;;;;;4998043;28;20461;-79
2022/12/08 10:08:19;;;;;;;17.63;12.70;;;4.50;99.90;;;;;;4990249;28;20457;-78
2022/12/08 10:10:56;;;;;;;18.60;12.43;;;4.50;99.90;;;;;;5015046;28;20450;-78
2022/12/08 10:13:34;;;;;;;17.43;12.63;;;4.50;99.90;;;;;;5014923;28;20460;-79
2022/12/08 10:16:12;;;;;;;15.27;11.70;;;4.50;99.90;;;;;;5015480;28;20466;-80
2022/12/08 10:18:39;;;;;;;16.90;11.53;;;4.60;99.90;;;;;;5015535;28;20480;-78
2022/12/08 10:21:16;;;;;;;21.20;14.47;;;4.70;99.90;;;;;;5014807;28;20479;-81
2022/12/08 10:23:47;;;;;;;22.87;15.03;;;4.60;99.90;;;;;;5014715;28;20446;-81
2022/12/08 10:26:22;;;;;;;27.40;16.77;;;4.50;99.90;;;;;;5014418;28;20470;-79
2022/12/08 10:28:49;;;;;;;21.13;13.97;;;4.40;99.90;;;;;;5014923;28;20505;-81
2022/12/08 10:31:17;;;;;;;20.50;13.80;;;4.50;99.90;;;;;;5012934;28;20914;-82
2022/12/08 10:33:46;;;;;;;19.40;12.77;;;4.60;99.90;;;;;;4975056;28;20459;-80
2022/12/08 10:36:13;;;;;;;19.67;13.20;;;4.50;99.90;;;;;;5006424;28;20481;-80
2022/12/08 10:38:40;;;;;;;18.83;13.80;;;4.40;99.90;;;;;;5014610;28;20483;-80
2022/12/08 10:41:13;;;;;;;19.87;13.50;;;4.40;99.90;;;;;;5014721;28;20587;-79
2022/12/08 10:43:46;;;;;;;15.47;12.00;;;4.40;99.90;;;;;;5015161;28;20469;-79
2022/12/08 10:46:15;;;;;;;19.50;12.23;;;4.50;99.90;;;;;;5014935;28;20486;-80
2022/12/08 10:48:50;;;;;;;17.97;12.20;;;4.60;99.90;;;;;;5014031;28;20536;-78
2022/12/08 10:51:28;;;;;;;21.10;14.10;;;4.70;99.90;;;;;;5014772;28;20450;-79
2022/12/08 10:53:55;;;;;;;23.30;14.67;;;4.60;99.90;;;;;;5014484;28;20461;-80
2022/12/08 10:56:26;;;;;;;18.80;14.00;;;4.60;99.90;;;;;;5014314;28;20973;-79
2022/12/08 10:59:11;;;;;;;18.60;13.40;;;4.60;99.90;;;;;;5013468;28;20442;-79
2022/12/08 11:01:40;;;;;;;20.13;12.93;;;4.60;99.90;;;;;;5013602;28;20481;-77
2022/12/08 11:04:13;;;;;;;17.50;12.93;;;4.50;99.90;;;;;;5014131;28;20456;-81
2022/12/08 11:06:41;;;;;;;17.73;12.43;;;4.50;99.90;;;;;;5013780;28;20999;-79
2022/12/08 11:09:24;;;;;;;16.80;13.13;;;4.50;99.90;;;;;;5013241;28;20509;-78
2022/12/08 11:11:53;;;;;;;14.80;10.50;;;4.50;99.90;;;;;;4992479;28;20459;-77
2022/12/08 11:14:25;;;;;;;15.40;11.90;;;4.50;99.90;;;;;;4997610;28;20451;-81
2022/12/08 11:16:54;;;;;;;16.17;10.87;;;4.50;99.90;;;;;;5006213;28;20647;-81
2022/12/08 11:19:25;;;;;;;16.33;11.77;;;4.50;99.90;;;;;;5006040;28;20457;-79
2022/12/08 11:21:52;;;;;;;16.33;11.90;;;4.50;99.90;;;;;;4999926;28;20574;-80
2022/12/08 11:24:23;;;;;;;18.77;13.27;;;4.40;99.90;;;;;;4994147;28;20455;-78
2022/12/08 11:26:53;;;;;;;18.63;13.40;;;4.40;99.90;;;;;;4986859;28;20480;-79
2022/12/08 11:29:21;;;;;;;17.73;13.30;;;4.40;99.90;;;;;;4988097;28;20451;-80
2022/12/08 11:31:53;;;;;;;18.80;13.90;;;4.30;99.90;;;;;;4987936;28;20461;-80
2022/12/08 11:34:26;;;;;;;19.97;15.13;;;4.30;99.90;;;;;;4991565;28;20456;-78
2022/12/08 11:36:55;;;;;;;21.03;13.50;;;4.40;99.90;;;;;;4989579;28;20472;-80
2022/12/08 11:39:23;;;;;;;19.57;13.00;;;4.40;99.90;;;;;;4987407;28;20452;-79
2022/12/08 11:41:54;;;;;;;21.80;15.40;;;4.40;99.90;;;;;;4990428;28;20487;-79
2022/12/08 11:44:33;;;;;;;18.37;13.80;;;4.30;99.90;;;;;;4990473;28;20459;-78
2022/12/08 11:47:06;;;;;;;24.17;14.70;;;4.40;99.90;;;;;;5023734;23;20504;-85
2022/12/08 11:49:37;;;;;;;19.67;13.93;;;4.40;99.90;;;;;;4995418;28;20452;-85
2022/12/08 11:52:11;;;;;;;19.27;13.93;;;4.30;99.90;;;;;;4996835;28;20443;-85
2022/12/08 11:54:44;;;;;;;18.53;13.30;;;4.40;99.90;;;;;;4997379;28;20791;-84
2022/12/08 11:57:14;;;;;;;17.30;12.87;;;4.40;99.90;;;;;;4996558;28;20550;-84
2022/12/08 11:59:45;;;;;;;21.07;14.20;;;4.40;99.90;;;;;;5005410;28;20466;-82
2022/12/08 12:02:15;;;;;;;15.63;12.00;;;4.40;99.90;;;;;;4993604;28;20484;-84
2022/12/08 12:04:48;;;;;;;19.97;14.33;;;4.50;99.90;;;;;;4994544;28;20493;-85
2022/12/08 12:07:40;;;;;;;17.90;13.77;;;4.40;99.90;;;;;;5002676;28;20477;-86
2022/12/08 12:10:23;;;;;;;18.13;11.60;;;4.30;99.90;;;;;;5016858;28;20542;-84
2022/12/08 12:13:05;;;;;;;20.07;14.43;;;4.40;99.90;;;;;;5016865;28;20467;-85
2022/12/08 12:16:13;;;;;;;20.00;12.97;;;4.20;99.90;;;;;;5016725;28;20437;-84
2022/12/08 12:18:45;;;;;;;19.30;13.97;;;4.30;99.90;;;;;;5015204;28;20474;-85
2022/12/08 12:21:18;;;;;;;18.13;13.37;;;4.30;99.90;;;;;;5016610;28;20497;-84
2022/12/08 12:23:48;;;;;;;23.33;14.10;;;4.40;99.90;;;;;;5016272;28;20537;-84
2022/12/08 12:26:19;;;;;;;19.77;13.73;;;4.40;99.90;;;;;;5016246;28;20848;-83
2022/12/08 12:28:52;;;;;;;20.80;15.03;;;4.40;99.90;;;;;;5015829;28;20920;-85
2022/12/08 12:31:24;;;;;;;21.00;14.53;;;4.40;99.90;;;;;;5016119;28;20493;-83
2022/12/08 12:33:56;;;;;;;22.37;16.03;;;4.40;99.90;;;;;;5015342;28;20877;-85
2022/12/08 12:36:24;;;;;;;20.90;16.70;;;4.40;99.90;;;;;;5015895;28;20446;-86
2022/12/08 12:39:05;;;;;;;20.20;14.80;;;4.40;99.90;;;;;;5015430;28;20449;-85
2022/12/08 12:41:37;;;;;;;17.40;12.90;;;4.30;99.90;;;;;;5015469;28;20823;-85
2022/12/08 12:44:36;;;;;;;18.10;14.60;;;4.40;99.90;;;;;;5016161;28;21001;-85
2022/12/08 12:47:07;;;;;;;18.00;12.83;;;4.30;99.90;;;;;;5016205;28;20581;-85
2022/12/08 12:50:05;;;;;;;23.17;14.90;;;4.30;99.90;;;;;;5015816;28;20441;-85
2022/12/08 12:52:50;;;;;;;13.50;10.23;;;4.10;99.90;;;;;;5016511;28;20843;-84
2022/12/08 12:55:50;;;;;;;14.10;11.10;;;3.90;99.90;;;;;;5016771;28;20536;-86
2022/12/08 12:58:35;;;;;;;17.10;11.50;;;3.90;99.90;;;;;;4993271;28;20471;-85
2022/12/08 13:01:37;;;;;;;16.50;12.30;;;3.90;99.90;;;;;;4999647;28;20458;-85